sensor_id;sensor_type;location;lat;lon;timestamp;temperature;humidity
11188;DHT22;5650;52.700;7.306;2023-03-18T00:00:11;12.20;99.90
11188;DHT22;5650;52.700;7.306;2023-03-18T00:02:41;12.20;99.90
11188;DHT22;5650;52.700;7.306;2023-03-18T00:05:17;12.20;99.90
11188;DHT22;5650;52.700;7.306;2023-03-18T00:07:44;12.20;99.90
11188;DHT22;5650;52.700;7.306;2023-03-18T00:10:12;12.20;99.90
11188;DHT22;5650;52.700;7.306;2023-03-18T00:12:41;12.20;99.90
11188;DHT22;5650;52.700;7.306;2023-03-18T00:15:11;12.20;99.90
11188;DHT22;5650;52.700;7.306;2023-03-18T00:17:38;12.20;99.90
11188;DHT22;5650;52.700;7.306;2023-03-18T00:20:09;12.20;99.90
11188;DHT22;5650;52.700;7.306;2023-03-18T00:22:40;12.20;99.90
11188;DHT22;5650;52.700;7.306;2023-03-18T00:25:09;12.20;99.90
11188;DHT22;5650;52.700;7.306;2023-03-18T00:27:37;12.30;99.90
11188;DHT22;5650;52.700;7.306;2023-03-18T00:30:06;12.30;99.90
11188;DHT22;5650;52.700;7.306;2023-03-18T00:32:40;12.30;99.90
11188;DHT22;5650;52.700;7.306;2023-03-18T00:35:13;12.30;99.90
11188;DHT22;5650;52.700;7.306;2023-03-18T00:37:45;12.30;99.90
11188;DHT22;5650;52.700;7.306;2023-03-18T00:40:16;12.30;99.90
11188;DHT22;5650;52.700;7.306;2023-03-18T00:42:45;12.30;99.90
11188;DHT22;5650;52.700;7.306;2023-03-18T00:45:22;12.30;99.90
11188;DHT22;5650;52.700;7.306;2023-03-18T00:47:50;12.30;99.90
11188;DHT22;5650;52.700;7.306;2023-03-18T00:50:17;12.30;99.90
11188;DHT22;5650;52.700;7.306;2023-03-18T00:52:49;12.40;99.90
11188;DHT22;5650;52.700;7.306;2023-03-18T00:55:16;12.30;99.90
11188;DHT22;5650;52.700;7.306;2023-03-18T00:57:44;12.30;99.90
11188;DHT22;5650;52.700;7.306;2023-03-18T01:00:12;12.40;99.90
11188;DHT22;5650;52.700;7.306;2023-03-18T01:02:41;12.40;99.90
11188;DHT22;5650;52.700;7.306;2023-03-18T01:05:18;12.30;99.90
11188;DHT22;5650;52.700;7.306;2023-03-18T01:07:47;12.40;99.90
11188;DHT22;5650;52.700;7.306;2023-03-18T01:10:17;12.40;99.90
11188;DHT22;5650;52.700;7.306;2023-03-18T01:12:45;12.30;99.90
11188;DHT22;5650;52.700;7.306;2023-03-18T01:15:15;12.30;99.90
11188;DHT22;5650;52.700;7.306;2023-03-18T01:17:45;12.30;99.90
11188;DHT22;5650;52.700;7.306;2023-03-18T01:20:14;12.30;99.90
11188;DHT22;5650;52.700;7.306;2023-03-18T01:22:43;12.20;99.90
11188;DHT22;5650;52.700;7.306;2023-03-18T01:25:13;12.20;99.90
11188;DHT22;5650;52.700;7.306;2023-03-18T01:27:41;12.20;99.90
11188;DHT22;5650;52.700;7.306;2023-03-18T01:30:13;12.10;99.90
11188;DHT22;5650;52.700;7.306;2023-03-18T01:32:40;12.10;99.90
11188;DHT22;5650;52.700;7.306;2023-03-18T01:35:09;12.10;99.90
11188;DHT22;5650;52.700;7.306;2023-03-18T01:37:45;12.10;99.90
11188;DHT22;5650;52.700;7.306;2023-03-18T01:40:15;12.10;99.90
11188;DHT22;5650;52.700;7.306;2023-03-18T01:42:47;12.20;99.90
11188;DHT22;5650;52.700;7.306;2023-03-18T01:45:25;12.20;99.90
11188;DHT22;5650;52.700;7.306;2023-03-18T01:47:56;12.20;99.90
11188;DHT22;5650;52.700;7.306;2023-03-18T01:50:26;12.20;99.90
11188;DHT22;5650;52.700;7.306;2023-03-18T01:52:56;12.20;99.90
11188;DHT22;5650;52.700;7.306;2023-03-18T01:55:30;12.20;99.90
11188;DHT22;5650;52.700;7.306;2023-03-18T01:58:09;12.10;99.90
11188;DHT22;5650;52.700;7.306;2023-03-18T02:00:43;12.10;99.90
11188;DHT22;5650;52.700;7.306;2023-03-18T02:03:12;12.10;99.90
11188;DHT22;5650;52.700;7.306;2023-03-18T02:05:44;12.10;99.90
11188;DHT22;5650;52.700;7.306;2023-03-18T02:08:30;12.00;99.90
11188;DHT22;5650;52.700;7.306;2023-03-18T02:10:59;12.00;99.90
11188;DHT22;5650;52.700;7.306;2023-03-18T02:13:27;12.00;99.90
11188;DHT22;5650;52.700;7.306;2023-03-18T02:15:58;11.90;99.90
11188;DHT22;5650;52.700;7.306;2023-03-18T02:18:32;11.90;99.90
11188;DHT22;5650;52.700;7.306;2023-03-18T02:21:15;11.80;99.90
11188;DHT22;5650;52.700;7.306;2023-03-18T02:23:54;11.80;99.90
11188;DHT22;5650;52.700;7.306;2023-03-18T02:26:28;11.80;99.90
11188;DHT22;5650;52.700;7.306;2023-03-18T02:28:59;11.80;99.90
11188;DHT22;5650;52.700;7.306;2023-03-18T02:31:30;11.70;99.90
11188;DHT22;5650;52.700;7.306;2023-03-18T02:34:00;11.70;99.90
11188;DHT22;5650;52.700;7.306;2023-03-18T02:36:31;11.70;99.90
11188;DHT22;5650;52.700;7.306;2023-03-18T02:38:59;11.70;99.90
11188;DHT22;5650;52.700;7.306;2023-03-18T02:41:29;11.60;99.90
11188;DHT22;5650;52.700;7.306;2023-03-18T02:44:01;11.60;99.90
11188;DHT22;5650;52.700;7.306;2023-03-18T02:46:32;11.50;99.90
11188;DHT22;5650;52.700;7.306;2023-03-18T02:49:03;11.50;99.90
11188;DHT22;5650;52.700;7.306;2023-03-18T02:51:32;11.50;99.90
11188;DHT22;5650;52.700;7.306;2023-03-18T02:54:02;11.40;99.90
11188;DHT22;5650;52.700;7.306;2023-03-18T02:56:48;11.50;99.90
11188;DHT22;5650;52.700;7.306;2023-03-18T03:18:49;11.30;99.90
11188;DHT22;5650;52.700;7.306;2023-03-18T03:21:17;11.30;99.90
11188;DHT22;5650;52.700;7.306;2023-03-18T03:23:45;11.20;99.90
11188;DHT22;5650;52.700;7.306;2023-03-18T03:26:14;11.20;99.90
11188;DHT22;5650;52.700;7.306;2023-03-18T03:28:44;11.20;99.90
11188;DHT22;5650;52.700;7.306;2023-03-18T03:31:15;11.10;99.90
11188;DHT22;5650;52.700;7.306;2023-03-18T03:33:43;11.10;99.90
11188;DHT22;5650;52.700;7.306;2023-03-18T03:36:16;11.10;99.90
11188;DHT22;5650;52.700;7.306;2023-03-18T03:38:47;11.10;99.90
11188;DHT22;5650;52.700;7.306;2023-03-18T03:41:15;11.10;99.90
11188;DHT22;5650;52.700;7.306;2023-03-18T03:43:43;11.10;99.90
11188;DHT22;5650;52.700;7.306;2023-03-18T03:46:16;11.10;99.90
11188;DHT22;5650;52.700;7.306;2023-03-18T03:48:43;11.10;99.90
11188;DHT22;5650;52.700;7.306;2023-03-18T03:51:14;11.20;99.90
11188;DHT22;5650;52.700;7.306;2023-03-18T03:53:44;11.20;99.90
11188;DHT22;5650;52.700;7.306;2023-03-18T03:56:14;11.20;99.90
11188;DHT22;5650;52.700;7.306;2023-03-18T03:58:48;11.20;99.90
11188;DHT22;5650;52.700;7.306;2023-03-18T04:01:15;11.30;99.90
11188;DHT22;5650;52.700;7.306;2023-03-18T04:03:45;11.30;99.90
11188;DHT22;5650;52.700;7.306;2023-03-18T04:06:17;11.30;99.90
11188;DHT22;5650;52.700;7.306;2023-03-18T04:08:44;11.30;99.90
11188;DHT22;5650;52.700;7.306;2023-03-18T04:11:15;11.30;99.90
11188;DHT22;5650;52.700;7.306;2023-03-18T04:13:45;11.30;99.90
11188;DHT22;5650;52.700;7.306;2023-03-18T04:16:17;11.40;99.90
11188;DHT22;5650;52.700;7.306;2023-03-18T04:18:44;11.40;99.90
11188;DHT22;5650;52.700;7.306;2023-03-18T04:21:11;11.40;99.90
11188;DHT22;5650;52.700;7.306;2023-03-18T04:23:43;11.40;99.90
11188;DHT22;5650;52.700;7.306;2023-03-18T04:26:11;11.40;99.90
11188;DHT22;5650;52.700;7.306;2023-03-18T04:28:38;11.40;99.90
11188;DHT22;5650;52.700;7.306;2023-03-18T04:31:11;11.40;99.90
11188;DHT22;5650;52.700;7.306;2023-03-18T04:33:39;11.40;99.90
11188;DHT22;5650;52.700;7.306;2023-03-18T04:36:15;11.40;99.90
11188;DHT22;5650;52.700;7.306;2023-03-18T04:38:44;11.40;99.90
11188;DHT22;5650;52.700;7.306;2023-03-18T04:41:14;11.40;99.90
11188;DHT22;5650;52.700;7.306;2023-03-18T04:43:41;11.40;99.90
11188;DHT22;5650;52.700;7.306;2023-03-18T04:46:09;11.30;99.90
11188;DHT22;5650;52.700;7.306;2023-03-18T04:48:39;11.30;99.90
11188;DHT22;5650;52.700;7.306;2023-03-18T04:51:09;11.30;99.90
11188;DHT22;5650;52.700;7.306;2023-03-18T04:53:37;11.30;99.90
11188;DHT22;5650;52.700;7.306;2023-03-18T04:56:17;11.30;99.90
11188;DHT22;5650;52.700;7.306;2023-03-18T04:58:45;11.30;99.90
11188;DHT22;5650;52.700;7.306;2023-03-18T05:01:16;11.30;99.90
11188;DHT22;5650;52.700;7.306;2023-03-18T05:03:43;11.30;99.90
11188;DHT22;5650;52.700;7.306;2023-03-18T05:06:22;11.30;99.90
11188;DHT22;5650;52.700;7.306;2023-03-18T05:08:52;11.30;99.90
11188;DHT22;5650;52.700;7.306;2023-03-18T05:11:28;11.30;99.90
11188;DHT22;5650;52.700;7.306;2023-03-18T05:13:58;11.30;99.90
11188;DHT22;5650;52.700;7.306;2023-03-18T05:16:26;11.30;99.90
11188;DHT22;5650;52.700;7.306;2023-03-18T05:18:56;11.30;99.90
11188;DHT22;5650;52.700;7.306;2023-03-18T05:21:27;11.30;99.90
11188;DHT22;5650;52.700;7.306;2023-03-18T05:23:54;11.30;99.90
11188;DHT22;5650;52.700;7.306;2023-03-18T05:26:23;11.30;99.90
11188;DHT22;5650;52.700;7.306;2023-03-18T05:28:56;11.30;99.90
11188;DHT22;5650;52.700;7.306;2023-03-18T05:31:26;11.30;99.90
11188;DHT22;5650;52.700;7.306;2023-03-18T05:33:54;11.30;99.90
11188;DHT22;5650;52.700;7.306;2023-03-18T05:36:25;11.20;99.90
11188;DHT22;5650;52.700;7.306;2023-03-18T05:39:00;11.20;99.90
11188;DHT22;5650;52.700;7.306;2023-03-18T05:41:31;11.20;99.90
11188;DHT22;5650;52.700;7.306;2023-03-18T05:44:01;11.20;99.90
11188;DHT22;5650;52.700;7.306;2023-03-18T05:46:28;11.20;99.90
11188;DHT22;5650;52.700;7.306;2023-03-18T05:48:59;11.20;99.90
11188;DHT22;5650;52.700;7.306;2023-03-18T05:51:29;11.20;99.90
11188;DHT22;5650;52.700;7.306;2023-03-18T05:53:57;11.20;99.90
11188;DHT22;5650;52.700;7.306;2023-03-18T05:56:30;11.10;99.90
11188;DHT22;5650;52.700;7.306;2023-03-18T05:58:57;11.20;99.90
11188;DHT22;5650;52.700;7.306;2023-03-18T06:01:27;11.10;99.90
11188;DHT22;5650;52.700;7.306;2023-03-18T06:03:56;11.10;99.90
11188;DHT22;5650;52.700;7.306;2023-03-18T06:06:23;11.10;99.90
11188;DHT22;5650;52.700;7.306;2023-03-18T06:08:50;11.10;99.90
11188;DHT22;5650;52.700;7.306;2023-03-18T06:11:18;11.10;99.90
11188;DHT22;5650;52.700;7.306;2023-03-18T06:13:58;11.10;99.90
11188;DHT22;5650;52.700;7.306;2023-03-18T06:16:28;11.10;99.90
11188;DHT22;5650;52.700;7.306;2023-03-18T06:18:56;11.10;99.90
11188;DHT22;5650;52.700;7.306;2023-03-18T06:21:23;11.10;99.90
11188;DHT22;5650;52.700;7.306;2023-03-18T06:23:51;11.10;99.90
11188;DHT22;5650;52.700;7.306;2023-03-18T06:26:22;11.10;99.90
11188;DHT22;5650;52.700;7.306;2023-03-18T06:28:52;11.10;99.90
11188;DHT22;5650;52.700;7.306;2023-03-18T06:31:21;11.10;99.90
11188;DHT22;5650;52.700;7.306;2023-03-18T06:33:48;11.10;99.90
11188;DHT22;5650;52.700;7.306;2023-03-18T06:36:16;11.10;99.90
11188;DHT22;5650;52.700;7.306;2023-03-18T06:38:44;11.10;99.90
11188;DHT22;5650;52.700;7.306;2023-03-18T06:41:12;11.10;99.90
11188;DHT22;5650;52.700;7.306;2023-03-18T06:43:45;11.10;99.90
11188;DHT22;5650;52.700;7.306;2023-03-18T06:46:15;11.10;99.90
11188;DHT22;5650;52.700;7.306;2023-03-18T06:48:43;11.10;99.90
11188;DHT22;5650;52.700;7.306;2023-03-18T06:51:11;11.10;99.90
11188;DHT22;5650;52.700;7.306;2023-03-18T06:53:38;11.20;99.90
11188;DHT22;5650;52.700;7.306;2023-03-18T06:56:07;11.20;99.90
11188;DHT22;5650;52.700;7.306;2023-03-18T06:58:34;11.20;99.90
11188;DHT22;5650;52.700;7.306;2023-03-18T07:01:02;11.20;99.90
11188;DHT22;5650;52.700;7.306;2023-03-18T07:03:29;11.20;99.90
11188;DHT22;5650;52.700;7.306;2023-03-18T07:05:58;11.20;99.90
11188;DHT22;5650;52.700;7.306;2023-03-18T07:08:27;11.20;99.90
11188;DHT22;5650;52.700;7.306;2023-03-18T07:10:55;11.30;99.90
11188;DHT22;5650;52.700;7.306;2023-03-18T07:13:22;11.30;99.90
11188;DHT22;5650;52.700;7.306;2023-03-18T07:15:49;11.30;99.90
11188;DHT22;5650;52.700;7.306;2023-03-18T07:18:16;11.40;99.90
11188;DHT22;5650;52.700;7.306;2023-03-18T07:20:44;11.30;99.90
11188;DHT22;5650;52.700;7.306;2023-03-18T07:23:13;11.30;99.90
11188;DHT22;5650;52.700;7.306;2023-03-18T07:25:40;11.40;99.90
11188;DHT22;5650;52.700;7.306;2023-03-18T07:28:09;11.40;99.90
11188;DHT22;5650;52.700;7.306;2023-03-18T07:30:36;11.40;99.90
11188;DHT22;5650;52.700;7.306;2023-03-18T07:33:04;11.40;99.90
11188;DHT22;5650;52.700;7.306;2023-03-18T07:35:31;11.50;99.90
11188;DHT22;5650;52.700;7.306;2023-03-18T07:37:58;11.50;99.90
11188;DHT22;5650;52.700;7.306;2023-03-18T07:40:27;11.50;99.90
11188;DHT22;5650;52.700;7.306;2023-03-18T07:42:54;11.60;99.90
11188;DHT22;5650;52.700;7.306;2023-03-18T07:45:21;11.60;99.90
11188;DHT22;5650;52.700;7.306;2023-03-18T07:47:49;11.60;99.90
11188;DHT22;5650;52.700;7.306;2023-03-18T07:50:16;11.60;99.90
11188;DHT22;5650;52.700;7.306;2023-03-18T07:52:44;11.70;99.90
11188;DHT22;5650;52.700;7.306;2023-03-18T07:55:11;11.70;99.90
11188;DHT22;5650;52.700;7.306;2023-03-18T07:57:40;11.70;99.90
11188;DHT22;5650;52.700;7.306;2023-03-18T08:00:09;11.70;99.90
11188;DHT22;5650;52.700;7.306;2023-03-18T08:02:37;11.70;99.90
11188;DHT22;5650;52.700;7.306;2023-03-18T08:05:05;11.70;99.90
11188;DHT22;5650;52.700;7.306;2023-03-18T08:07:32;11.70;99.90
11188;DHT22;5650;52.700;7.306;2023-03-18T08:10:00;11.80;99.90
11188;DHT22;5650;52.700;7.306;2023-03-18T08:12:27;11.70;99.90
11188;DHT22;5650;52.700;7.306;2023-03-18T08:14:56;11.70;99.90
11188;DHT22;5650;52.700;7.306;2023-03-18T08:17:24;11.70;99.90
11188;DHT22;5650;52.700;7.306;2023-03-18T08:19:51;11.70;99.90
11188;DHT22;5650;52.700;7.306;2023-03-18T08:22:18;11.80;99.90
11188;DHT22;5650;52.700;7.306;2023-03-18T08:24:46;11.80;99.90
11188;DHT22;5650;52.700;7.306;2023-03-18T08:27:13;11.80;99.90
11188;DHT22;5650;52.700;7.306;2023-03-18T08:29:40;11.90;99.90
11188;DHT22;5650;52.700;7.306;2023-03-18T08:32:10;11.90;99.90
11188;DHT22;5650;52.700;7.306;2023-03-18T08:34:38;11.90;99.90
11188;DHT22;5650;52.700;7.306;2023-03-18T08:37:06;11.90;99.90
11188;DHT22;5650;52.700;7.306;2023-03-18T08:39:33;12.00;99.90
11188;DHT22;5650;52.700;7.306;2023-03-18T08:42:02;12.10;99.90
11188;DHT22;5650;52.700;7.306;2023-03-18T08:44:30;12.10;99.90
11188;DHT22;5650;52.700;7.306;2023-03-18T08:46:57;12.30;99.90
11188;DHT22;5650;52.700;7.306;2023-03-18T08:49:26;12.40;99.90
11188;DHT22;5650;52.700;7.306;2023-03-18T08:51:53;12.50;99.90
11188;DHT22;5650;52.700;7.306;2023-03-18T08:54:21;12.50;99.90
11188;DHT22;5650;52.700;7.306;2023-03-18T08:56:48;12.60;99.90
11188;DHT22;5650;52.700;7.306;2023-03-18T08:59:17;12.70;99.90
11188;DHT22;5650;52.700;7.306;2023-03-18T09:01:44;12.90;99.90
11188;DHT22;5650;52.700;7.306;2023-03-18T09:04:12;13.10;99.90
11188;DHT22;5650;52.700;7.306;2023-03-18T09:06:42;13.30;99.90
11188;DHT22;5650;52.700;7.306;2023-03-18T09:09:09;13.40;99.90
11188;DHT22;5650;52.700;7.306;2023-03-18T09:11:37;13.40;99.90
11188;DHT22;5650;52.700;7.306;2023-03-18T09:14:05;13.40;99.90
11188;DHT22;5650;52.700;7.306;2023-03-18T09:16:32;13.40;99.90
11188;DHT22;5650;52.700;7.306;2023-03-18T09:19:00;13.50;99.90
11188;DHT22;5650;52.700;7.306;2023-03-18T09:21:28;13.60;99.90
11188;DHT22;5650;52.700;7.306;2023-03-18T09:23:57;13.70;99.90
11188;DHT22;5650;52.700;7.306;2023-03-18T09:26:24;13.80;99.90
11188;DHT22;5650;52.700;7.306;2023-03-18T09:28:51;14.00;99.90
11188;DHT22;5650;52.700;7.306;2023-03-18T09:31:19;14.10;99.90
11188;DHT22;5650;52.700;7.306;2023-03-18T09:33:46;14.20;99.90
11188;DHT22;5650;52.700;7.306;2023-03-18T09:36:13;14.20;99.90
11188;DHT22;5650;52.700;7.306;2023-03-18T09:38:40;14.10;99.90
11188;DHT22;5650;52.700;7.306;2023-03-18T09:41:21;14.20;99.90
11188;DHT22;5650;52.700;7.306;2023-03-18T09:43:57;14.30;99.90
11188;DHT22;5650;52.700;7.306;2023-03-18T09:46:31;14.40;99.90
11188;DHT22;5650;52.700;7.306;2023-03-18T09:52:17;14.70;99.90
11188;DHT22;5650;52.700;7.306;2023-03-18T09:54:51;14.70;99.90
11188;DHT22;5650;52.700;7.306;2023-03-18T09:57:23;14.90;99.90
11188;DHT22;5650;52.700;7.306;2023-03-18T09:59:57;15.00;99.90
11188;DHT22;5650;52.700;7.306;2023-03-18T10:02:28;15.00;99.90
11188;DHT22;5650;52.700;7.306;2023-03-18T10:05:00;15.10;99.90
11188;DHT22;5650;52.700;7.306;2023-03-18T10:07:32;15.10;99.90
11188;DHT22;5650;52.700;7.306;2023-03-18T10:10:05;15.00;99.90
11188;DHT22;5650;52.700;7.306;2023-03-18T10:12:38;14.90;99.90
11188;DHT22;5650;52.700;7.306;2023-03-18T10:15:14;14.90;99.90
11188;DHT22;5650;52.700;7.306;2023-03-18T10:17:47;14.90;99.90
11188;DHT22;5650;52.700;7.306;2023-03-18T10:20:19;15.00;99.90
11188;DHT22;5650;52.700;7.306;2023-03-18T10:23:05;15.10;99.90
11188;DHT22;5650;52.700;7.306;2023-03-18T10:25:38;15.30;99.90
11188;DHT22;5650;52.700;7.306;2023-03-18T10:28:20;15.30;99.90
11188;DHT22;5650;52.700;7.306;2023-03-18T10:30:58;15.40;99.90
11188;DHT22;5650;52.700;7.306;2023-03-18T10:33:35;15.50;99.90
11188;DHT22;5650;52.700;7.306;2023-03-18T10:36:06;15.60;99.90
11188;DHT22;5650;52.700;7.306;2023-03-18T10:38:40;15.70;99.90
11188;DHT22;5650;52.700;7.306;2023-03-18T10:41:15;15.80;99.90
11188;DHT22;5650;52.700;7.306;2023-03-18T10:43:45;15.90;99.90
11188;DHT22;5650;52.700;7.306;2023-03-18T10:46:15;16.00;99.90
11188;DHT22;5650;52.700;7.306;2023-03-18T10:48:47;16.10;99.90
11188;DHT22;5650;52.700;7.306;2023-03-18T10:51:18;16.10;99.90
11188;DHT22;5650;52.700;7.306;2023-03-18T10:53:50;16.20;99.90
11188;DHT22;5650;52.700;7.306;2023-03-18T10:56:20;16.20;99.90
11188;DHT22;5650;52.700;7.306;2023-03-18T10:58:49;16.20;99.90
11188;DHT22;5650;52.700;7.306;2023-03-18T11:01:19;16.20;99.90
11188;DHT22;5650;52.700;7.306;2023-03-18T11:03:52;16.30;99.90
11188;DHT22;5650;52.700;7.306;2023-03-18T11:06:23;16.30;99.90
11188;DHT22;5650;52.700;7.306;2023-03-18T11:09:01;16.30;99.90
11188;DHT22;5650;52.700;7.306;2023-03-18T11:11:32;16.30;99.90
11188;DHT22;5650;52.700;7.306;2023-03-18T11:14:03;16.30;99.90
11188;DHT22;5650;52.700;7.306;2023-03-18T11:16:38;16.20;99.90
11188;DHT22;5650;52.700;7.306;2023-03-18T11:19:26;16.30;99.90
11188;DHT22;5650;52.700;7.306;2023-03-18T11:22:03;16.30;99.90
11188;DHT22;5650;52.700;7.306;2023-03-18T11:24:32;16.30;99.90
11188;DHT22;5650;52.700;7.306;2023-03-18T11:27:23;16.20;99.90
11188;DHT22;5650;52.700;7.306;2023-03-18T11:29:57;16.20;99.90
11188;DHT22;5650;52.700;7.306;2023-03-18T11:32:26;16.20;99.90
11188;DHT22;5650;52.700;7.306;2023-03-18T11:34:54;16.20;99.90
11188;DHT22;5650;52.700;7.306;2023-03-18T11:37:28;16.30;99.90
11188;DHT22;5650;52.700;7.306;2023-03-18T11:40:14;16.50;99.90
11188;DHT22;5650;52.700;7.306;2023-03-18T11:42:43;16.60;99.90
11188;DHT22;5650;52.700;7.306;2023-03-18T11:45:29;16.70;99.90
11188;DHT22;5650;52.700;7.306;2023-03-18T11:47:58;16.70;99.90
11188;DHT22;5650;52.700;7.306;2023-03-18T11:50:32;16.80;99.90
11188;DHT22;5650;52.700;7.306;2023-03-18T11:53:09;16.90;99.90
11188;DHT22;5650;52.700;7.306;2023-03-18T11:55:42;17.10;99.90
11188;DHT22;5650;52.700;7.306;2023-03-18T11:58:31;17.20;99.90
11188;DHT22;5650;52.700;7.306;2023-03-18T12:01:12;17.30;99.90
11188;DHT22;5650;52.700;7.306;2023-03-18T12:04:00;17.30;99.90
11188;DHT22;5650;52.700;7.306;2023-03-18T12:06:30;17.40;99.90
11188;DHT22;5650;52.700;7.306;2023-03-18T12:09:05;17.30;99.90
11188;DHT22;5650;52.700;7.306;2023-03-18T12:11:49;17.30;99.90
11188;DHT22;5650;52.700;7.306;2023-03-18T12:14:26;17.20;99.90
11188;DHT22;5650;52.700;7.306;2023-03-18T12:17:04;17.10;99.90
11188;DHT22;5650;52.700;7.306;2023-03-18T12:22:51;17.00;99.90
11188;DHT22;5650;52.700;7.306;2023-03-18T12:25:34;16.90;99.90
11188;DHT22;5650;52.700;7.306;2023-03-18T12:28:09;17.00;99.90
11188;DHT22;5650;52.700;7.306;2023-03-18T12:31:05;17.20;99.90
11188;DHT22;5650;52.700;7.306;2023-03-18T12:33:50;17.20;99.90
11188;DHT22;5650;52.700;7.306;2023-03-18T12:36:34;17.20;99.90
11188;DHT22;5650;52.700;7.306;2023-03-18T12:42:17;17.30;99.90
11188;DHT22;5650;52.700;7.306;2023-03-18T12:44:55;17.30;99.90
11188;DHT22;5650;52.700;7.306;2023-03-18T12:47:30;17.40;99.90
11188;DHT22;5650;52.700;7.306;2023-03-18T12:50:04;17.50;99.90
11188;DHT22;5650;52.700;7.306;2023-03-18T12:52:36;17.60;99.90
11188;DHT22;5650;52.700;7.306;2023-03-18T12:55:11;17.70;99.90
11188;DHT22;5650;52.700;7.306;2023-03-18T12:57:43;17.80;99.90
11188;DHT22;5650;52.700;7.306;2023-03-18T13:00:25;17.80;99.90
11188;DHT22;5650;52.700;7.306;2023-03-18T13:02:58;17.60;99.90
11188;DHT22;5650;52.700;7.306;2023-03-18T13:05:40;17.50;99.90
11188;DHT22;5650;52.700;7.306;2023-03-18T13:08:46;17.40;99.90
11188;DHT22;5650;52.700;7.306;2023-03-18T13:11:35;17.50;99.90
11188;DHT22;5650;52.700;7.306;2023-03-18T13:14:14;17.60;99.90
11188;DHT22;5650;52.700;7.306;2023-03-18T13:16:46;17.60;99.90
11188;DHT22;5650;52.700;7.306;2023-03-18T13:19:14;17.60;99.90
11188;DHT22;5650;52.700;7.306;2023-03-18T13:21:48;17.70;99.90
11188;DHT22;5650;52.700;7.306;2023-03-18T13:24:38;17.60;99.90
11188;DHT22;5650;52.700;7.306;2023-03-18T13:27:35;17.60;99.90
11188;DHT22;5650;52.700;7.306;2023-03-18T13:30:13;17.60;99.90
11188;DHT22;5650;52.700;7.306;2023-03-18T13:33:07;17.60;99.90
11188;DHT22;5650;52.700;7.306;2023-03-18T13:36:00;17.50;99.90
11188;DHT22;5650;52.700;7.306;2023-03-18T13:38:42;17.50;99.90
11188;DHT22;5650;52.700;7.306;2023-03-18T13:44:32;17.70;99.90
11188;DHT22;5650;52.700;7.306;2023-03-18T13:47:04;17.70;99.90
11188;DHT22;5650;52.700;7.306;2023-03-18T13:49:33;17.80;99.90
11188;DHT22;5650;52.700;7.306;2023-03-18T13:52:03;17.80;99.90
11188;DHT22;5650;52.700;7.306;2023-03-18T13:54:48;17.90;99.90
11188;DHT22;5650;52.700;7.306;2023-03-18T13:57:31;17.90;99.90
11188;DHT22;5650;52.700;7.306;2023-03-18T14:00:27;18.00;99.90
11188;DHT22;5650;52.700;7.306;2023-03-18T14:03:18;17.90;99.90
11188;DHT22;5650;52.700;7.306;2023-03-18T14:05:48;17.90;99.90
11188;DHT22;5650;52.700;7.306;2023-03-18T14:08:45;17.80;99.90
11188;DHT22;5650;52.700;7.306;2023-03-18T14:11:48;17.70;99.90
11188;DHT22;5650;52.700;7.306;2023-03-18T14:14:52;17.80;99.90
11188;DHT22;5650;52.700;7.306;2023-03-18T14:17:25;17.80;99.90
11188;DHT22;5650;52.700;7.306;2023-03-18T14:20:04;17.70;99.90
11188;DHT22;5650;52.700;7.306;2023-03-18T14:22:36;17.70;99.90
11188;DHT22;5650;52.700;7.306;2023-03-18T14:25:17;17.60;99.90
11188;DHT22;5650;52.700;7.306;2023-03-18T14:27:48;17.60;99.90
11188;DHT22;5650;52.700;7.306;2023-03-18T14:33:57;17.60;99.90
11188;DHT22;5650;52.700;7.306;2023-03-18T14:36:44;17.70;99.90
11188;DHT22;5650;52.700;7.306;2023-03-18T14:39:15;17.80;99.90
11188;DHT22;5650;52.700;7.306;2023-03-18T14:41:46;17.90;99.90
11188;DHT22;5650;52.700;7.306;2023-03-18T14:44:20;17.90;99.90
11188;DHT22;5650;52.700;7.306;2023-03-18T14:46:56;17.90;99.90
11188;DHT22;5650;52.700;7.306;2023-03-18T14:49:40;17.90;99.90
11188;DHT22;5650;52.700;7.306;2023-03-18T14:52:21;17.90;99.90
11188;DHT22;5650;52.700;7.306;2023-03-18T14:54:50;17.80;99.90
11188;DHT22;5650;52.700;7.306;2023-03-18T14:57:20;17.80;99.90
11188;DHT22;5650;52.700;7.306;2023-03-18T14:59:49;17.70;99.90
11188;DHT22;5650;52.700;7.306;2023-03-18T15:02:23;17.60;99.90
11188;DHT22;5650;52.700;7.306;2023-03-18T15:04:52;17.60;99.90
11188;DHT22;5650;52.700;7.306;2023-03-18T15:07:28;17.60;99.90
11188;DHT22;5650;52.700;7.306;2023-03-18T15:10:02;17.50;99.90
11188;DHT22;5650;52.700;7.306;2023-03-18T15:12:30;17.50;99.90
11188;DHT22;5650;52.700;7.306;2023-03-18T15:14:59;17.50;99.90
11188;DHT22;5650;52.700;7.306;2023-03-18T15:17:26;17.50;99.90
11188;DHT22;5650;52.700;7.306;2023-03-18T15:19:57;17.50;99.90
11188;DHT22;5650;52.700;7.306;2023-03-18T15:22:27;17.50;99.90
11188;DHT22;5650;52.700;7.306;2023-03-18T15:24:58;17.50;99.90
11188;DHT22;5650;52.700;7.306;2023-03-18T15:27:29;17.50;99.90
11188;DHT22;5650;52.700;7.306;2023-03-18T15:30:00;17.50;99.90
11188;DHT22;5650;52.700;7.306;2023-03-18T15:32:29;17.50;99.90
11188;DHT22;5650;52.700;7.306;2023-03-18T15:35:05;17.40;99.90
11188;DHT22;5650;52.700;7.306;2023-03-18T15:37:36;17.40;99.90
11188;DHT22;5650;52.700;7.306;2023-03-18T15:40:31;17.40;99.90
11188;DHT22;5650;52.700;7.306;2023-03-18T15:43:11;17.30;99.90
11188;DHT22;5650;52.700;7.306;2023-03-18T15:45:46;17.30;99.90
11188;DHT22;5650;52.700;7.306;2023-03-18T15:48:20;17.30;99.90
11188;DHT22;5650;52.700;7.306;2023-03-18T15:50:54;17.30;99.90
11188;DHT22;5650;52.700;7.306;2023-03-18T15:53:24;17.20;99.90
11188;DHT22;5650;52.700;7.306;2023-03-18T15:55:53;17.20;99.90
11188;DHT22;5650;52.700;7.306;2023-03-18T15:58:24;17.20;99.90
11188;DHT22;5650;52.700;7.306;2023-03-18T16:00:54;17.20;99.90
11188;DHT22;5650;52.700;7.306;2023-03-18T16:03:24;17.20;99.90
11188;DHT22;5650;52.700;7.306;2023-03-18T16:05:52;17.20;99.90
11188;DHT22;5650;52.700;7.306;2023-03-18T16:08:20;17.20;99.90
11188;DHT22;5650;52.700;7.306;2023-03-18T16:10:50;17.20;99.90
11188;DHT22;5650;52.700;7.306;2023-03-18T16:13:22;17.20;99.90
11188;DHT22;5650;52.700;7.306;2023-03-18T16:15:50;17.20;99.90
11188;DHT22;5650;52.700;7.306;2023-03-18T16:18:20;17.20;99.90
11188;DHT22;5650;52.700;7.306;2023-03-18T16:20:48;17.20;99.90
11188;DHT22;5650;52.700;7.306;2023-03-18T16:23:16;17.20;99.90
11188;DHT22;5650;52.700;7.306;2023-03-18T16:25:45;17.10;99.90
11188;DHT22;5650;52.700;7.306;2023-03-18T16:28:19;17.10;99.90
11188;DHT22;5650;52.700;7.306;2023-03-18T16:30:50;17.00;99.90
11188;DHT22;5650;52.700;7.306;2023-03-18T16:33:20;16.90;99.90
11188;DHT22;5650;52.700;7.306;2023-03-18T16:35:52;16.80;99.90
11188;DHT22;5650;52.700;7.306;2023-03-18T16:38:21;16.70;99.90
11188;DHT22;5650;52.700;7.306;2023-03-18T16:40:51;16.60;99.90
11188;DHT22;5650;52.700;7.306;2023-03-18T16:43:21;16.60;99.90
11188;DHT22;5650;52.700;7.306;2023-03-18T16:45:49;16.50;99.90
11188;DHT22;5650;52.700;7.306;2023-03-18T16:48:19;16.40;99.90
11188;DHT22;5650;52.700;7.306;2023-03-18T16:50:48;16.40;99.90